Terminal Aerodrome Forecast
Issued by NWS

Home | Current Version | Previous Version | Text Only | Print | Product List | Glossary On
Versions: 1 2 3 4 5 6 7 8 9
000
FTUS45 KFGZ 282300 RRA
TAFPRC
TAF
KPRC 282345Z 2900/2924 VRB05KT P6SM FEW150 SCT250
     FM290200 19006KT P6SM FEW250
     FM292000 25007KT P6SM FEW250=

USA.gov is the U.S. government's official web portal to all federal, state and local government web resources and services.